sensor_id;sensor_type;location;lat;lon;timestamp;pressure;altitude;pressure_sealevel;temperature;humidity
36454;BME280;22478;51.740;-1.314;2023-02-15T00:01:48;101334.85;;;2.61;100.00
36454;BME280;22478;51.740;-1.314;2023-02-15T00:04:23;101332.49;;;3.31;100.00
36454;BME280;22478;51.740;-1.314;2023-02-15T00:06:51;101326.95;;;2.96;100.00
36454;BME280;22478;51.740;-1.314;2023-02-15T00:09:18;101323.84;;;2.77;100.00
36454;BME280;22478;51.740;-1.314;2023-02-15T00:11:45;101315.00;;;3.05;100.00
36454;BME280;22478;51.740;-1.314;2023-02-15T00:14:14;101311.23;;;2.26;100.00
36454;BME280;22478;51.740;-1.314;2023-02-15T00:16:43;101310.61;;;2.11;100.00
36454;BME280;22478;51.740;-1.314;2023-02-15T00:19:12;101302.53;;;2.97;100.00
36454;BME280;22478;51.740;-1.314;2023-02-15T00:21:40;101296.30;;;3.17;100.00
36454;BME280;22478;51.740;-1.314;2023-02-15T00:24:09;101291.39;;;3.00;100.00
36454;BME280;22478;51.740;-1.314;2023-02-15T00:26:38;101285.98;;;3.38;100.00
36454;BME280;22478;51.740;-1.314;2023-02-15T00:29:07;101283.48;;;3.41;100.00
36454;BME280;22478;51.740;-1.314;2023-02-15T00:31:35;101278.51;;;2.98;100.00
36454;BME280;22478;51.740;-1.314;2023-02-15T00:34:03;101276.81;;;2.97;100.00
36454;BME280;22478;51.740;-1.314;2023-02-15T00:36:31;101273.79;;;2.65;100.00
36454;BME280;22478;51.740;-1.314;2023-02-15T00:38:58;101270.96;;;1.80;100.00
36454;BME280;22478;51.740;-1.314;2023-02-15T00:41:25;101270.61;;;1.40;100.00
36454;BME280;22478;51.740;-1.314;2023-02-15T00:43:53;101268.22;;;1.00;100.00
36454;BME280;22478;51.740;-1.314;2023-02-15T00:46:20;101264.40;;;1.08;100.00
36454;BME280;22478;51.740;-1.314;2023-02-15T00:48:48;101261.34;;;1.82;100.00
36454;BME280;22478;51.740;-1.314;2023-02-15T00:51:16;101263.41;;;1.82;100.00
36454;BME280;22478;51.740;-1.314;2023-02-15T00:53:43;101262.37;;;2.20;100.00
36454;BME280;22478;51.740;-1.314;2023-02-15T00:56:11;101255.66;;;1.45;100.00
36454;BME280;22478;51.740;-1.314;2023-02-15T00:58:38;101252.84;;;0.15;100.00
36454;BME280;22478;51.740;-1.314;2023-02-15T01:01:07;101250.83;;;0.38;100.00
36454;BME280;22478;51.740;-1.314;2023-02-15T01:03:35;101244.95;;;0.39;100.00
36454;BME280;22478;51.740;-1.314;2023-02-15T01:06:03;101241.56;;;0.16;100.00
36454;BME280;22478;51.740;-1.314;2023-02-15T01:08:31;101233.68;;;-0.17;100.00
36454;BME280;22478;51.740;-1.314;2023-02-15T01:11:03;101222.81;;;0.63;100.00
36454;BME280;22478;51.740;-1.314;2023-02-15T01:13:31;101224.58;;;0.21;100.00
36454;BME280;22478;51.740;-1.314;2023-02-15T01:15:58;101217.33;;;-0.79;100.00
36454;BME280;22478;51.740;-1.314;2023-02-15T01:18:25;101219.79;;;0.00;100.00
36454;BME280;22478;51.740;-1.314;2023-02-15T01:20:52;101211.67;;;0.12;100.00
36454;BME280;22478;51.740;-1.314;2023-02-15T01:23:20;101207.22;;;1.44;100.00
36454;BME280;22478;51.740;-1.314;2023-02-15T01:25:47;101207.89;;;-0.33;100.00
36454;BME280;22478;51.740;-1.314;2023-02-15T01:28:14;101203.06;;;1.20;100.00
36454;BME280;22478;51.740;-1.314;2023-02-15T01:30:41;101202.87;;;1.39;100.00
36454;BME280;22478;51.740;-1.314;2023-02-15T01:33:10;101206.34;;;0.71;100.00
36454;BME280;22478;51.740;-1.314;2023-02-15T01:35:38;101203.78;;;1.33;100.00
36454;BME280;22478;51.740;-1.314;2023-02-15T01:38:05;101199.85;;;1.09;100.00
36454;BME280;22478;51.740;-1.314;2023-02-15T01:40:33;101199.23;;;0.27;100.00
36454;BME280;22478;51.740;-1.314;2023-02-15T01:43:00;101199.86;;;2.19;100.00
36454;BME280;22478;51.740;-1.314;2023-02-15T01:45:30;101195.86;;;2.70;100.00
36454;BME280;22478;51.740;-1.314;2023-02-15T01:48:01;101199.94;;;1.59;100.00
36454;BME280;22478;51.740;-1.314;2023-02-15T01:50:32;101197.63;;;1.11;100.00
36454;BME280;22478;51.740;-1.314;2023-02-15T01:53:05;101195.28;;;2.02;100.00
36454;BME280;22478;51.740;-1.314;2023-02-15T01:55:37;101184.91;;;2.36;100.00
36454;BME280;22478;51.740;-1.314;2023-02-15T01:58:06;101187.00;;;1.94;100.00
36454;BME280;22478;51.740;-1.314;2023-02-15T02:00:35;101191.75;;;1.38;100.00
36454;BME280;22478;51.740;-1.314;2023-02-15T02:03:03;101192.76;;;2.24;100.00
36454;BME280;22478;51.740;-1.314;2023-02-15T02:05:31;101196.14;;;1.18;100.00
36454;BME280;22478;51.740;-1.314;2023-02-15T02:08:01;101189.65;;;1.26;100.00
36454;BME280;22478;51.740;-1.314;2023-02-15T02:10:29;101185.90;;;2.28;100.00
36454;BME280;22478;51.740;-1.314;2023-02-15T02:12:58;101193.33;;;0.61;100.00
36454;BME280;22478;51.740;-1.314;2023-02-15T02:15:35;101181.25;;;1.70;100.00
36454;BME280;22478;51.740;-1.314;2023-02-15T02:18:16;101178.79;;;1.96;100.00
36454;BME280;22478;51.740;-1.314;2023-02-15T02:21:04;101176.68;;;2.88;100.00
36454;BME280;22478;51.740;-1.314;2023-02-15T02:23:53;101176.57;;;1.92;100.00
36454;BME280;22478;51.740;-1.314;2023-02-15T02:26:45;101172.20;;;2.53;100.00
36454;BME280;22478;51.740;-1.314;2023-02-15T02:31:55;101159.87;;;2.15;100.00
36454;BME280;22478;51.740;-1.314;2023-02-15T02:34:36;101161.12;;;0.68;100.00
36454;BME280;22478;51.740;-1.314;2023-02-15T02:37:16;101147.64;;;2.48;100.00
36454;BME280;22478;51.740;-1.314;2023-02-15T02:39:51;101145.63;;;1.92;100.00
36454;BME280;22478;51.740;-1.314;2023-02-15T02:42:28;101136.05;;;3.40;99.68
36454;BME280;22478;51.740;-1.314;2023-02-15T02:45:03;101140.66;;;2.87;97.93
36454;BME280;22478;51.740;-1.314;2023-02-15T02:47:36;101138.76;;;3.35;96.42
36454;BME280;22478;51.740;-1.314;2023-02-15T02:50:08;101139.29;;;2.84;95.38
36454;BME280;22478;51.740;-1.314;2023-02-15T02:52:40;101149.18;;;-0.46;100.00
36454;BME280;22478;51.740;-1.314;2023-02-15T02:55:11;101136.44;;;1.85;100.00
36454;BME280;22478;51.740;-1.314;2023-02-15T02:57:45;101131.31;;;2.07;100.00
36454;BME280;22478;51.740;-1.314;2023-02-15T03:00:17;101118.72;;;3.44;90.17
36454;BME280;22478;51.740;-1.314;2023-02-15T03:02:47;101113.45;;;3.62;93.20
36454;BME280;22478;51.740;-1.314;2023-02-15T03:05:19;101106.77;;;1.41;100.00
36454;BME280;22478;51.740;-1.314;2023-02-15T03:07:55;101102.91;;;2.48;96.52
36454;BME280;22478;51.740;-1.314;2023-02-15T03:10:24;101096.65;;;1.78;100.00
36454;BME280;22478;51.740;-1.314;2023-02-15T03:12:52;101099.45;;;1.47;100.00
36454;BME280;22478;51.740;-1.314;2023-02-15T03:15:23;101096.91;;;0.87;100.00
36454;BME280;22478;51.740;-1.314;2023-02-15T03:17:55;101098.21;;;-0.11;100.00
36454;BME280;22478;51.740;-1.314;2023-02-15T03:20:29;101094.91;;;1.21;100.00
36454;BME280;22478;51.740;-1.314;2023-02-15T03:23:00;101090.89;;;1.51;100.00
36454;BME280;22478;51.740;-1.314;2023-02-15T03:25:33;101083.46;;;1.67;100.00
36454;BME280;22478;51.740;-1.314;2023-02-15T03:28:04;101088.36;;;0.71;100.00
36454;BME280;22478;51.740;-1.314;2023-02-15T03:30:34;101088.34;;;0.24;100.00
36454;BME280;22478;51.740;-1.314;2023-02-15T03:33:03;101084.38;;;0.86;100.00
36454;BME280;22478;51.740;-1.314;2023-02-15T03:35:37;101075.21;;;1.48;100.00
36454;BME280;22478;51.740;-1.314;2023-02-15T03:38:09;101070.67;;;1.71;100.00
36454;BME280;22478;51.740;-1.314;2023-02-15T03:40:41;101062.91;;;1.65;100.00
36454;BME280;22478;51.740;-1.314;2023-02-15T03:43:14;101058.71;;;2.35;100.00
36454;BME280;22478;51.740;-1.314;2023-02-15T03:45:47;101059.68;;;2.45;100.00
36454;BME280;22478;51.740;-1.314;2023-02-15T03:48:17;101054.92;;;2.57;100.00
36454;BME280;22478;51.740;-1.314;2023-02-15T03:50:45;101057.68;;;2.47;100.00
36454;BME280;22478;51.740;-1.314;2023-02-15T03:53:15;101061.12;;;0.67;100.00
36454;BME280;22478;51.740;-1.314;2023-02-15T03:55:46;101066.32;;;0.23;100.00
36454;BME280;22478;51.740;-1.314;2023-02-15T03:58:13;101057.30;;;1.49;100.00
36454;BME280;22478;51.740;-1.314;2023-02-15T04:00:57;101050.08;;;1.79;100.00
36454;BME280;22478;51.740;-1.314;2023-02-15T04:03:30;101049.17;;;2.30;100.00
36454;BME280;22478;51.740;-1.314;2023-02-15T04:06:00;101048.96;;;1.17;100.00
36454;BME280;22478;51.740;-1.314;2023-02-15T04:08:28;101046.71;;;1.38;100.00
36454;BME280;22478;51.740;-1.314;2023-02-15T04:10:56;101044.24;;;2.83;100.00
36454;BME280;22478;51.740;-1.314;2023-02-15T04:13:30;101037.77;;;2.40;100.00
36454;BME280;22478;51.740;-1.314;2023-02-15T04:15:58;101029.16;;;2.16;100.00
36454;BME280;22478;51.740;-1.314;2023-02-15T04:18:25;101024.14;;;3.10;100.00
36454;BME280;22478;51.740;-1.314;2023-02-15T04:20:52;101024.39;;;2.00;100.00
36454;BME280;22478;51.740;-1.314;2023-02-15T04:23:20;101024.22;;;2.49;100.00
36454;BME280;22478;51.740;-1.314;2023-02-15T04:25:47;101025.84;;;1.68;100.00
36454;BME280;22478;51.740;-1.314;2023-02-15T04:28:14;101025.77;;;1.75;100.00
36454;BME280;22478;51.740;-1.314;2023-02-15T04:30:41;101020.04;;;2.59;100.00
36454;BME280;22478;51.740;-1.314;2023-02-15T04:33:09;101018.54;;;1.36;100.00
36454;BME280;22478;51.740;-1.314;2023-02-15T04:35:36;101019.79;;;1.78;100.00
36454;BME280;22478;51.740;-1.314;2023-02-15T04:38:03;101004.91;;;2.43;100.00
36454;BME280;22478;51.740;-1.314;2023-02-15T04:40:31;101008.70;;;1.66;100.00
36454;BME280;22478;51.740;-1.314;2023-02-15T04:42:58;101002.15;;;3.05;100.00
36454;BME280;22478;51.740;-1.314;2023-02-15T04:45:26;101006.28;;;2.44;100.00
36454;BME280;22478;51.740;-1.314;2023-02-15T04:47:53;101009.99;;;1.10;100.00
36454;BME280;22478;51.740;-1.314;2023-02-15T04:50:21;101003.62;;;1.06;100.00
36454;BME280;22478;51.740;-1.314;2023-02-15T04:52:48;101002.67;;;1.82;100.00
36454;BME280;22478;51.740;-1.314;2023-02-15T04:55:15;100998.33;;;1.26;100.00
36454;BME280;22478;51.740;-1.314;2023-02-15T04:57:42;100998.95;;;1.46;100.00
36454;BME280;22478;51.740;-1.314;2023-02-15T05:00:10;101000.54;;;1.39;100.00
36454;BME280;22478;51.740;-1.314;2023-02-15T05:02:37;101005.08;;;0.93;100.00
36454;BME280;22478;51.740;-1.314;2023-02-15T05:05:06;101001.27;;;1.36;100.00
36454;BME280;22478;51.740;-1.314;2023-02-15T05:07:33;100996.76;;;1.25;100.00
36454;BME280;22478;51.740;-1.314;2023-02-15T05:10:00;100995.34;;;0.98;100.00
36454;BME280;22478;51.740;-1.314;2023-02-15T05:12:28;100989.16;;;0.62;100.00
36454;BME280;22478;51.740;-1.314;2023-02-15T05:14:54;100977.18;;;2.00;100.00
36454;BME280;22478;51.740;-1.314;2023-02-15T05:17:22;100981.39;;;1.39;100.00
36454;BME280;22478;51.740;-1.314;2023-02-15T05:19:49;100975.69;;;2.04;100.00
36454;BME280;22478;51.740;-1.314;2023-02-15T05:22:17;100983.72;;;0.48;100.00
36454;BME280;22478;51.740;-1.314;2023-02-15T05:24:44;100977.28;;;1.17;100.00
36454;BME280;22478;51.740;-1.314;2023-02-15T05:27:12;100973.51;;;1.46;100.00
36454;BME280;22478;51.740;-1.314;2023-02-15T05:29:39;100966.59;;;1.85;100.00
36454;BME280;22478;51.740;-1.314;2023-02-15T05:32:07;100970.43;;;1.14;100.00
36454;BME280;22478;51.740;-1.314;2023-02-15T05:34:34;100967.23;;;1.95;100.00
36454;BME280;22478;51.740;-1.314;2023-02-15T05:37:01;100964.06;;;1.35;100.00
36454;BME280;22478;51.740;-1.314;2023-02-15T05:39:28;100959.85;;;2.09;100.00
36454;BME280;22478;51.740;-1.314;2023-02-15T05:41:58;100948.96;;;2.89;100.00
36454;BME280;22478;51.740;-1.314;2023-02-15T05:44:25;100948.94;;;1.19;100.00
36454;BME280;22478;51.740;-1.314;2023-02-15T05:46:53;100944.97;;;1.22;100.00
36454;BME280;22478;51.740;-1.314;2023-02-15T05:49:20;100948.32;;;2.61;100.00
36454;BME280;22478;51.740;-1.314;2023-02-15T05:51:47;100946.58;;;1.12;100.00
36454;BME280;22478;51.740;-1.314;2023-02-15T05:54:15;100948.04;;;1.55;100.00
36454;BME280;22478;51.740;-1.314;2023-02-15T05:56:42;100956.17;;;0.50;100.00
36454;BME280;22478;51.740;-1.314;2023-02-15T05:59:10;100958.75;;;1.13;100.00
36454;BME280;22478;51.740;-1.314;2023-02-15T06:01:37;100953.26;;;2.11;100.00
36454;BME280;22478;51.740;-1.314;2023-02-15T06:04:04;100952.31;;;2.34;100.00
36454;BME280;22478;51.740;-1.314;2023-02-15T06:06:31;100955.58;;;1.73;100.00
36454;BME280;22478;51.740;-1.314;2023-02-15T06:08:58;100971.09;;;0.37;100.00
36454;BME280;22478;51.740;-1.314;2023-02-15T06:11:26;100966.65;;;1.17;100.00
36454;BME280;22478;51.740;-1.314;2023-02-15T06:13:53;100978.43;;;-0.34;100.00
36454;BME280;22478;51.740;-1.314;2023-02-15T06:16:20;100980.88;;;-0.08;100.00
36454;BME280;22478;51.740;-1.314;2023-02-15T06:18:47;100973.88;;;1.23;100.00
36454;BME280;22478;51.740;-1.314;2023-02-15T06:21:15;100988.90;;;0.57;100.00
36454;BME280;22478;51.740;-1.314;2023-02-15T06:23:42;100991.73;;;0.58;100.00
36454;BME280;22478;51.740;-1.314;2023-02-15T06:26:09;100995.96;;;-0.63;100.00
36454;BME280;22478;51.740;-1.314;2023-02-15T06:28:36;100988.43;;;1.43;100.00
36454;BME280;22478;51.740;-1.314;2023-02-15T06:31:03;100989.64;;;0.49;100.00
36454;BME280;22478;51.740;-1.314;2023-02-15T06:33:31;100990.91;;;1.14;100.00
36454;BME280;22478;51.740;-1.314;2023-02-15T06:35:58;100991.52;;;0.19;100.00
36454;BME280;22478;51.740;-1.314;2023-02-15T06:38:25;100999.93;;;0.51;100.00
36454;BME280;22478;51.740;-1.314;2023-02-15T06:40:52;100994.19;;;1.38;100.00
36454;BME280;22478;51.740;-1.314;2023-02-15T06:43:19;100996.23;;;2.14;100.00
36454;BME280;22478;51.740;-1.314;2023-02-15T06:45:47;101009.45;;;0.11;100.00
36454;BME280;22478;51.740;-1.314;2023-02-15T06:48:14;101007.20;;;0.60;100.00
36454;BME280;22478;51.740;-1.314;2023-02-15T06:50:42;101001.86;;;1.55;100.00
36454;BME280;22478;51.740;-1.314;2023-02-15T06:53:09;101008.76;;;1.89;100.00
36454;BME280;22478;51.740;-1.314;2023-02-15T06:55:37;101010.32;;;1.51;100.00
36454;BME280;22478;51.740;-1.314;2023-02-15T06:58:04;101006.79;;;1.87;100.00
36454;BME280;22478;51.740;-1.314;2023-02-15T07:00:32;101003.92;;;1.73;100.00
36454;BME280;22478;51.740;-1.314;2023-02-15T07:03:00;100996.41;;;1.24;100.00
36454;BME280;22478;51.740;-1.314;2023-02-15T07:05:28;100997.53;;;2.00;100.00
36454;BME280;22478;51.740;-1.314;2023-02-15T07:07:56;100997.63;;;2.30;100.00
36454;BME280;22478;51.740;-1.314;2023-02-15T07:10:24;100999.27;;;2.32;100.00
36454;BME280;22478;51.740;-1.314;2023-02-15T07:12:51;100998.95;;;1.07;100.00
36454;BME280;22478;51.740;-1.314;2023-02-15T07:15:19;100996.52;;;1.92;100.00
36454;BME280;22478;51.740;-1.314;2023-02-15T07:17:47;100991.39;;;3.32;100.00
36454;BME280;22478;51.740;-1.314;2023-02-15T07:20:16;100996.28;;;1.84;100.00
36454;BME280;22478;51.740;-1.314;2023-02-15T07:22:43;101003.13;;;2.21;100.00
36454;BME280;22478;51.740;-1.314;2023-02-15T07:25:12;100999.09;;;2.70;100.00
36454;BME280;22478;51.740;-1.314;2023-02-15T07:27:39;101001.31;;;1.59;100.00
36454;BME280;22478;51.740;-1.314;2023-02-15T07:30:08;101000.88;;;2.46;100.00
36454;BME280;22478;51.740;-1.314;2023-02-15T07:32:37;101002.98;;;2.28;100.00
36454;BME280;22478;51.740;-1.314;2023-02-15T07:35:05;101003.97;;;1.81;100.00
36454;BME280;22478;51.740;-1.314;2023-02-15T07:37:32;101002.92;;;3.02;100.00
36454;BME280;22478;51.740;-1.314;2023-02-15T07:39:59;100998.91;;;2.22;100.00
36454;BME280;22478;51.740;-1.314;2023-02-15T07:42:26;100999.09;;;1.89;100.00
36454;BME280;22478;51.740;-1.314;2023-02-15T07:44:54;101000.80;;;1.38;100.00
36454;BME280;22478;51.740;-1.314;2023-02-15T07:47:21;100997.30;;;1.53;100.00
36454;BME280;22478;51.740;-1.314;2023-02-15T07:49:48;101004.20;;;2.22;100.00
36454;BME280;22478;51.740;-1.314;2023-02-15T07:52:15;101007.78;;;1.51;100.00
36454;BME280;22478;51.740;-1.314;2023-02-15T07:54:42;101004.89;;;2.85;100.00
36454;BME280;22478;51.740;-1.314;2023-02-15T07:57:10;101007.00;;;2.01;100.00
36454;BME280;22478;51.740;-1.314;2023-02-15T07:59:37;101006.10;;;2.72;100.00
36454;BME280;22478;51.740;-1.314;2023-02-15T08:02:07;101012.71;;;1.92;100.00
36454;BME280;22478;51.740;-1.314;2023-02-15T08:04:36;101011.10;;;3.27;100.00
36454;BME280;22478;51.740;-1.314;2023-02-15T08:07:03;101015.80;;;1.87;100.00
36454;BME280;22478;51.740;-1.314;2023-02-15T08:09:31;101014.53;;;2.67;100.00
36454;BME280;22478;51.740;-1.314;2023-02-15T08:11:59;101015.30;;;1.97;100.00
36454;BME280;22478;51.740;-1.314;2023-02-15T08:14:27;101015.23;;;1.03;100.00
36454;BME280;22478;51.740;-1.314;2023-02-15T08:17:00;101007.04;;;1.80;100.00
36454;BME280;22478;51.740;-1.314;2023-02-15T08:19:29;101006.36;;;1.95;100.00
36454;BME280;22478;51.740;-1.314;2023-02-15T08:21:59;101006.11;;;1.80;100.00
36454;BME280;22478;51.740;-1.314;2023-02-15T08:24:28;101000.47;;;2.13;100.00
36454;BME280;22478;51.740;-1.314;2023-02-15T08:26:56;100994.23;;;2.32;100.00
36454;BME280;22478;51.740;-1.314;2023-02-15T08:29:25;100992.11;;;1.45;100.00
36454;BME280;22478;51.740;-1.314;2023-02-15T08:31:55;100979.72;;;2.81;100.00
36454;BME280;22478;51.740;-1.314;2023-02-15T08:34:23;100978.19;;;1.62;100.00
36454;BME280;22478;51.740;-1.314;2023-02-15T08:36:50;100977.39;;;2.18;100.00
36454;BME280;22478;51.740;-1.314;2023-02-15T08:39:17;100968.02;;;1.63;100.00
36454;BME280;22478;51.740;-1.314;2023-02-15T08:41:50;100962.00;;;2.54;100.00
36454;BME280;22478;51.740;-1.314;2023-02-15T08:44:19;100954.13;;;2.22;100.00
36454;BME280;22478;51.740;-1.314;2023-02-15T08:46:47;100960.50;;;1.92;100.00
36454;BME280;22478;51.740;-1.314;2023-02-15T08:49:17;100955.44;;;3.28;100.00
36454;BME280;22478;51.740;-1.314;2023-02-15T08:51:45;100954.10;;;3.80;100.00
36454;BME280;22478;51.740;-1.314;2023-02-15T08:54:15;100954.85;;;1.52;100.00
36454;BME280;22478;51.740;-1.314;2023-02-15T08:56:43;100946.39;;;1.88;100.00
36454;BME280;22478;51.740;-1.314;2023-02-15T08:59:14;100943.79;;;2.92;100.00
36454;BME280;22478;51.740;-1.314;2023-02-15T09:01:41;100942.43;;;2.92;100.00
36454;BME280;22478;51.740;-1.314;2023-02-15T09:04:09;100944.05;;;2.35;100.00
36454;BME280;22478;51.740;-1.314;2023-02-15T09:06:38;100945.58;;;3.46;100.00
36454;BME280;22478;51.740;-1.314;2023-02-15T09:09:06;100951.99;;;2.44;100.00
36454;BME280;22478;51.740;-1.314;2023-02-15T09:11:35;100960.00;;;2.55;100.00
36454;BME280;22478;51.740;-1.314;2023-02-15T09:14:04;100960.76;;;2.90;100.00
36454;BME280;22478;51.740;-1.314;2023-02-15T09:16:34;100974.85;;;1.42;100.00
36454;BME280;22478;51.740;-1.314;2023-02-15T09:19:02;100978.18;;;0.61;100.00
36454;BME280;22478;51.740;-1.314;2023-02-15T09:21:30;100975.07;;;2.29;100.00
36454;BME280;22478;51.740;-1.314;2023-02-15T09:23:59;100973.97;;;1.20;100.00
36454;BME280;22478;51.740;-1.314;2023-02-15T09:26:28;100977.84;;;1.34;100.00
36454;BME280;22478;51.740;-1.314;2023-02-15T09:28:57;100983.49;;;2.37;100.00
36454;BME280;22478;51.740;-1.314;2023-02-15T09:31:27;100980.25;;;1.92;100.00
36454;BME280;22478;51.740;-1.314;2023-02-15T09:33:56;100979.97;;;2.21;100.00
36454;BME280;22478;51.740;-1.314;2023-02-15T09:36:26;100978.06;;;1.56;100.00
36454;BME280;22478;51.740;-1.314;2023-02-15T09:38:56;100964.94;;;2.07;100.00
36454;BME280;22478;51.740;-1.314;2023-02-15T09:41:50;100955.04;;;1.95;100.00
36454;BME280;22478;51.740;-1.314;2023-02-15T09:44:28;100957.90;;;2.67;100.00
36454;BME280;22478;51.740;-1.314;2023-02-15T09:47:08;100960.30;;;3.36;100.00
36454;BME280;22478;51.740;-1.314;2023-02-15T09:49:45;100956.91;;;3.22;100.00
36454;BME280;22478;51.740;-1.314;2023-02-15T09:52:29;100956.31;;;2.54;100.00
36454;BME280;22478;51.740;-1.314;2023-02-15T09:55:14;100953.13;;;2.45;100.00
36454;BME280;22478;51.740;-1.314;2023-02-15T09:57:46;100952.90;;;3.47;100.00
36454;BME280;22478;51.740;-1.314;2023-02-15T10:00:24;100949.37;;;2.66;100.00
36454;BME280;22478;51.740;-1.314;2023-02-15T10:03:12;100945.29;;;3.02;100.00
36454;BME280;22478;51.740;-1.314;2023-02-15T10:05:54;100940.85;;;3.45;100.00
36454;BME280;22478;51.740;-1.314;2023-02-15T10:08:40;100945.38;;;3.47;100.00
36454;BME280;22478;51.740;-1.314;2023-02-15T10:11:16;100946.27;;;5.01;100.00
36454;BME280;22478;51.740;-1.314;2023-02-15T10:13:48;100939.82;;;5.16;100.00
36454;BME280;22478;51.740;-1.314;2023-02-15T10:16:28;100927.67;;;6.49;100.00
36454;BME280;22478;51.740;-1.314;2023-02-15T10:19:04;100922.38;;;6.29;100.00
36454;BME280;22478;51.740;-1.314;2023-02-15T10:21:46;100920.58;;;7.25;100.00
36454;BME280;22478;51.740;-1.314;2023-02-15T10:24:29;100924.75;;;7.88;100.00
36454;BME280;22478;51.740;-1.314;2023-02-15T10:27:03;100922.18;;;7.44;100.00
36454;BME280;22478;51.740;-1.314;2023-02-15T10:29:35;100919.28;;;8.92;100.00
36454;BME280;22478;51.740;-1.314;2023-02-15T10:32:11;100924.64;;;8.80;100.00
36454;BME280;22478;51.740;-1.314;2023-02-15T10:34:50;100926.62;;;8.78;100.00
36454;BME280;22478;51.740;-1.314;2023-02-15T10:37:31;100904.90;;;11.95;89.43
36454;BME280;22478;51.740;-1.314;2023-02-15T10:40:08;100907.49;;;11.53;80.53
36454;BME280;22478;51.740;-1.314;2023-02-15T10:42:49;100911.29;;;12.55;79.46
36454;BME280;22478;51.740;-1.314;2023-02-15T10:45:25;100926.43;;;7.93;95.27
36454;BME280;22478;51.740;-1.314;2023-02-15T10:48:10;100922.40;;;10.54;86.87
36454;BME280;22478;51.740;-1.314;2023-02-15T10:50:48;100922.47;;;10.38;84.16
36454;BME280;22478;51.740;-1.314;2023-02-15T10:53:28;100919.37;;;10.89;83.67
36454;BME280;22478;51.740;-1.314;2023-02-15T10:56:11;100915.02;;;13.38;70.83
36454;BME280;22478;51.740;-1.314;2023-02-15T10:58:51;100907.09;;;11.27;80.47
36454;BME280;22478;51.740;-1.314;2023-02-15T11:01:26;100900.11;;;10.92;80.93
36454;BME280;22478;51.740;-1.314;2023-02-15T11:04:12;100896.03;;;9.54;86.62
36454;BME280;22478;51.740;-1.314;2023-02-15T11:06:50;100888.10;;;11.94;80.86
36454;BME280;22478;51.740;-1.314;2023-02-15T11:09:22;100890.03;;;10.26;87.43
36454;BME280;22478;51.740;-1.314;2023-02-15T11:11:53;100883.18;;;9.64;93.33
36454;BME280;22478;51.740;-1.314;2023-02-15T11:14:27;100879.10;;;9.50;94.60
36454;BME280;22478;51.740;-1.314;2023-02-15T11:17:02;100877.56;;;10.29;89.59
36454;BME280;22478;51.740;-1.314;2023-02-15T11:19:33;100882.80;;;12.36;82.14
36454;BME280;22478;51.740;-1.314;2023-02-15T11:22:04;100865.42;;;14.09;70.94
36454;BME280;22478;51.740;-1.314;2023-02-15T11:24:41;100859.96;;;14.68;66.51
36454;BME280;22478;51.740;-1.314;2023-02-15T11:27:18;100863.63;;;13.21;67.90
36454;BME280;22478;51.740;-1.314;2023-02-15T11:29:54;100879.03;;;13.69;67.84
36454;BME280;22478;51.740;-1.314;2023-02-15T11:32:26;100884.33;;;11.14;78.20
36454;BME280;22478;51.740;-1.314;2023-02-15T11:34:58;100883.47;;;13.17;70.01
36454;BME280;22478;51.740;-1.314;2023-02-15T11:37:33;100888.14;;;14.96;67.93
36454;BME280;22478;51.740;-1.314;2023-02-15T11:40:19;100889.14;;;12.89;65.84
36454;BME280;22478;51.740;-1.314;2023-02-15T11:42:48;100877.46;;;16.29;57.22
36454;BME280;22478;51.740;-1.314;2023-02-15T11:45:22;100890.17;;;11.23;72.04
36454;BME280;22478;51.740;-1.314;2023-02-15T11:47:53;100872.99;;;14.69;66.40
36454;BME280;22478;51.740;-1.314;2023-02-15T11:50:23;100869.63;;;14.11;63.25
36454;BME280;22478;51.740;-1.314;2023-02-15T11:52:52;100863.56;;;17.17;52.57
36454;BME280;22478;51.740;-1.314;2023-02-15T11:55:23;100867.05;;;12.69;62.26
36454;BME280;22478;51.740;-1.314;2023-02-15T11:57:54;100866.61;;;13.57;59.90
36454;BME280;22478;51.740;-1.314;2023-02-15T12:00:31;100875.30;;;12.33;61.83
36454;BME280;22478;51.740;-1.314;2023-02-15T12:02:59;100867.77;;;14.28;58.53
36454;BME280;22478;51.740;-1.314;2023-02-15T12:05:28;100860.95;;;15.70;53.86
36454;BME280;22478;51.740;-1.314;2023-02-15T12:08:01;100862.54;;;16.59;51.45
36454;BME280;22478;51.740;-1.314;2023-02-15T12:10:33;100858.68;;;14.27;55.66
36454;BME280;22478;51.740;-1.314;2023-02-15T12:13:11;100869.58;;;12.29;61.49
36454;BME280;22478;51.740;-1.314;2023-02-15T12:15:41;100857.31;;;18.70;47.32
36454;BME280;22478;51.740;-1.314;2023-02-15T12:18:19;100849.23;;;19.49;47.22
36454;BME280;22478;51.740;-1.314;2023-02-15T12:20:49;100852.08;;;16.48;47.92
36454;BME280;22478;51.740;-1.314;2023-02-15T12:23:17;100855.43;;;13.01;56.08
36454;BME280;22478;51.740;-1.314;2023-02-15T12:25:51;100845.74;;;16.45;50.46
36454;BME280;22478;51.740;-1.314;2023-02-15T12:28:25;100838.42;;;19.44;44.65
36454;BME280;22478;51.740;-1.314;2023-02-15T12:30:53;100847.07;;;14.00;54.81
36454;BME280;22478;51.740;-1.314;2023-02-15T12:33:26;100842.19;;;14.58;55.14
36454;BME280;22478;51.740;-1.314;2023-02-15T12:35:57;100845.39;;;11.38;64.61
36454;BME280;22478;51.740;-1.314;2023-02-15T12:38:27;100843.63;;;13.45;65.55
36454;BME280;22478;51.740;-1.314;2023-02-15T12:41:00;100840.03;;;14.02;58.99
36454;BME280;22478;51.740;-1.314;2023-02-15T12:43:32;100833.54;;;14.27;56.64
36454;BME280;22478;51.740;-1.314;2023-02-15T12:46:25;100826.37;;;16.91;51.32
36454;BME280;22478;51.740;-1.314;2023-02-15T12:49:17;100825.96;;;17.94;50.90
36454;BME280;22478;51.740;-1.314;2023-02-15T12:51:47;100834.75;;;13.66;55.58
36454;BME280;22478;51.740;-1.314;2023-02-15T12:54:20;100833.28;;;12.71;60.40
36454;BME280;22478;51.740;-1.314;2023-02-15T12:56:52;100825.15;;;16.65;53.40
36454;BME280;22478;51.740;-1.314;2023-02-15T12:59:20;100821.30;;;16.31;51.77
36454;BME280;22478;51.740;-1.314;2023-02-15T13:01:48;100820.92;;;14.69;54.63